This is the latest recevied weather packets stored in our database for station/object YO2LDK-13. If no packets are shown the sender has not sent any weather packets the latest 10 day(s).
| Time | Temp. | Humidity | Pressure | Rain* | Wind** | Luminosity | Snow |
|---|---|---|---|---|---|---|---|
| 1777340120 | 5.56° C | 73% | 1008.5 hPa | 0 mm | - | 0 W/m² | - |
| 1777339820 | 5.56° C | 73% | 1008.5 hPa | 0 mm | - | 0 W/m² | - |
| 1777339521 | 5.56° C | 71% | 1008.5 hPa | 0 mm | - | 0 W/m² | - |
| 1777339222 | 5.56° C | 72% | 1008.5 hPa | 0 mm | - | 0 W/m² | - |
| 1777338919 | 6.11° C | 71% | 1008.5 hPa | 0 mm | - | 0 W/m² | - |
| 1777338320 | 6.11° C | 71% | 1008.5 hPa | 0 mm | - | 0 W/m² | - |
| 1777338021 | 6.11° C | 69% | 1008.5 hPa | 0 mm | - | 0 W/m² | - |
| 1777337122 | 6.67° C | 66% | 1008.5 hPa | 0 mm | - | 0 W/m² | - |
| 1777335920 | 6.67° C | 66% | 1008.5 hPa | 0 mm | - | 0 W/m² | - |
| 1777335620 | 6.67° C | 66% | 1008.8 hPa | 0 mm | - | 0 W/m² | - |
| 1777335319 | 6.67° C | 65% | 1008.5 hPa | 0 mm | - | 0 W/m² | - |
| 1777334721 | 6.67° C | 65% | 1008.5 hPa | 0 mm | - | 0 W/m² | - |
| 1777332020 | 7.78° C | 62% | 1009.1 hPa | 0 mm | - | 0 W/m² | - |
| 1777329320 | 7.78° C | 61% | 1008.8 hPa | 0 mm | - | 0 W/m² | - |
| 1777313720 | 14.44° C | 50% | 1008.5 hPa | 0 mm | - | 0 W/m² | - |
| 1777313420 | 14.44° C | 48% | 1008.1 hPa | 0 mm | - | 0 W/m² | - |
| 1777313120 | 14.44° C | 48% | 1008.5 hPa | 0 mm | - | 0 W/m² | - |
| 1777312821 | 14.44° C | 49% | 1008.1 hPa | 0 mm | - | 0 W/m² | - |
| 1777312520 | 15° C | 47% | 1008.1 hPa | 0 mm | - | 0 W/m² | - |
| 1777311319 | 16.11° C | 45% | 1007.8 hPa | 0 mm | - | 3 W/m² | - |
| 1777311020 | 16.67° C | 45% | 1008.1 hPa | 0 mm | - | 5 W/m² | - |
| 1777310720 | 16.67° C | 43% | 1008.1 hPa | 0 mm | - | 7 W/m² | - |
| 1777310420 | 17.22° C | 41% | 1008.1 hPa | 0 mm | - | 9 W/m² | - |
| 1777309220 | 18.33° C | 37% | 1008.1 hPa | 0 mm | - | 18 W/m² | - |
| 1777308620 | 18.89° C | 37% | 1008.1 hPa | 0 mm | - | 22 W/m² | - |
* Rain latest hour (hover to see other rain measurements)
** Current wind speed in m/s (hover to see current wind gust speed)